Time;durP1;ratioP1;P1;durP2;ratioP2;P2;SDS_P1;SDS_P2;PMS_P1;PMS_P2;Temp;Humidity;BMP_temperature;BMP_pressure;BME280_temperature;BME280_humidity;BME280_pressure;Samples;Min_cycle;Max_cycle;Signal;HPM_P1;HPM_P2
2022/12/31 00:02:09;;;;;;;14.25;2.50;;;;;;;;;;5090788;28;20507;-58
2022/12/31 00:04:35;;;;;;;11.20;1.80;;;;;;;;;;5091221;28;20135;-58
2022/12/31 00:07:02;;;;;;;15.13;2.72;;;;;;;;;;5092612;28;20044;-58
2022/12/31 00:09:28;;;;;;;15.40;2.70;;;;;;;;;;5092299;28;20055;-58
2022/12/31 00:11:54;;;;;;;16.40;3.17;;;;;;;;;;5092446;28;20399;-58
2022/12/31 00:14:21;;;;;;;11.02;2.63;;;;;;;;;;5092407;28;20074;-58
2022/12/31 00:16:47;;;;;;;11.68;2.72;;;;;;;;;;5092416;28;20510;-58
2022/12/31 00:19:14;;;;;;;15.75;3.08;;;;;;;;;;5092442;28;20496;-58
2022/12/31 00:21:42;;;;;;;13.43;2.58;;;;;;;;;;5092369;28;20044;-58
2022/12/31 00:24:09;;;;;;;15.88;2.90;;;;;;;;;;5092237;28;20435;-58
2022/12/31 00:26:36;;;;;;;14.75;2.80;;;;;;;;;;5092361;28;20056;-58
2022/12/31 00:29:03;;;;;;;14.00;2.38;;;;;;;;;;5092215;28;20136;-58
2022/12/31 00:31:34;;;;;;;11.00;2.83;;;;;;;;;;5092577;28;20058;-58
2022/12/31 00:34:00;;;;;;;10.50;2.25;;;;;;;;;;5092413;28;20724;-58
2022/12/31 00:36:28;;;;;;;11.30;2.05;;;;;;;;;;5091284;28;20047;-58
2022/12/31 00:38:55;;;;;;;6.43;1.58;;;;;;;;;;5092094;28;20444;-58
2022/12/31 00:41:23;;;;;;;17.70;1.85;;;;;;;;;;5091913;28;20438;-58
2022/12/31 00:43:49;;;;;;;9.93;1.42;;;;;;;;;;5091999;28;20504;-58
2022/12/31 00:46:16;;;;;;;11.82;1.88;;;;;;;;;;5092219;28;20467;-58
2022/12/31 00:48:43;;;;;;;11.50;1.70;;;;;;;;;;5090940;28;20048;-58
2022/12/31 00:51:10;;;;;;;7.80;1.58;;;;;;;;;;5092223;28;20423;-58
2022/12/31 00:53:37;;;;;;;14.40;2.63;;;;;;;;;;5092180;28;20403;-58
2022/12/31 00:56:09;;;;;;;11.63;2.13;;;;;;;;;;5091802;28;20036;-58
2022/12/31 00:58:35;;;;;;;9.32;1.83;;;;;;;;;;5092204;28;20052;-57
2022/12/31 01:01:13;;;;;;;16.73;2.55;;;;;;;;;;5092048;28;20052;-57
2022/12/31 01:03:40;;;;;;;10.65;2.30;;;;;;;;;;5092128;28;20076;-57
2022/12/31 01:06:06;;;;;;;18.52;2.70;;;;;;;;;;5092013;28;20051;-57
2022/12/31 01:08:33;;;;;;;13.88;1.90;;;;;;;;;;5091671;28;20408;-57
2022/12/31 01:11:18;;;;;;;10.52;2.15;;;;;;;;;;5091913;28;20048;-57
2022/12/31 01:13:48;;;;;;;10.45;1.50;;;;;;;;;;5091807;28;20055;-57
2022/12/31 01:16:16;;;;;;;18.23;2.63;;;;;;;;;;5092079;28;20044;-58
2022/12/31 01:18:42;;;;;;;12.52;2.78;;;;;;;;;;5091574;28;20048;-58
2022/12/31 01:21:10;;;;;;;15.18;2.90;;;;;;;;;;5091932;28;20445;-57
2022/12/31 01:23:36;;;;;;;18.83;2.10;;;;;;;;;;5091473;28;20052;-58
2022/12/31 01:26:05;;;;;;;9.57;1.60;;;;;;;;;;5091887;28;20056;-57
2022/12/31 01:28:32;;;;;;;12.65;2.35;;;;;;;;;;5091509;28;20502;-57
2022/12/31 01:31:01;;;;;;;11.32;2.17;;;;;;;;;;5091662;28;20102;-57
2022/12/31 01:33:28;;;;;;;5.88;1.20;;;;;;;;;;5089014;28;20040;-57
2022/12/31 01:35:54;;;;;;;11.43;2.47;;;;;;;;;;5090212;28;20727;-58
2022/12/31 01:38:20;;;;;;;9.30;2.17;;;;;;;;;;5091629;28;20078;-56
2022/12/31 01:40:47;;;;;;;6.63;1.00;;;;;;;;;;5091494;28;20054;-57
2022/12/31 01:43:17;;;;;;;8.63;1.35;;;;;;;;;;5091466;28;20054;-57
2022/12/31 01:45:48;;;;;;;7.38;1.40;;;;;;;;;;5091694;28;20067;-57
2022/12/31 01:48:18;;;;;;;6.18;1.85;;;;;;;;;;5091319;28;20415;-57
2022/12/31 01:50:45;;;;;;;9.82;1.92;;;;;;;;;;5091607;28;20144;-57
2022/12/31 01:53:11;;;;;;;7.70;1.85;;;;;;;;;;5091529;28;20048;-56
2022/12/31 01:55:51;;;;;;;8.55;2.20;;;;;;;;;;5091627;28;20048;-57
2022/12/31 01:58:19;;;;;;;8.90;2.05;;;;;;;;;;5091617;28;20410;-57
2022/12/31 02:00:46;;;;;;;11.98;2.47;;;;;;;;;;5091775;28;20131;-57
2022/12/31 02:03:13;;;;;;;8.75;1.40;;;;;;;;;;5091224;28;20044;-57
2022/12/31 02:05:58;;;;;;;3.63;1.10;;;;;;;;;;5091160;28;20048;-58
2022/12/31 02:08:24;;;;;;;9.93;2.10;;;;;;;;;;5089864;28;20123;-57
2022/12/31 02:10:51;;;;;;;5.45;1.23;;;;;;;;;;5090941;28;20457;-57
2022/12/31 02:13:17;;;;;;;4.20;1.00;;;;;;;;;;5091265;28;20137;-57
2022/12/31 02:15:56;;;;;;;15.05;1.33;;;;;;;;;;5091224;28;20127;-58
2022/12/31 02:18:28;;;;;;;13.55;1.42;;;;;;;;;;5091180;28;20040;-57
2022/12/31 02:20:55;;;;;;;9.93;1.42;;;;;;;;;;5091366;28;20076;-57
2022/12/31 02:23:21;;;;;;;13.65;1.73;;;;;;;;;;5094157;28;20056;-58
2022/12/31 02:25:54;;;;;;;10.93;1.10;;;;;;;;;;5094348;28;20081;-57
2022/12/31 02:28:20;;;;;;;3.75;0.88;;;;;;;;;;5094562;28;20534;-57
2022/12/31 02:30:49;;;;;;;4.47;0.70;;;;;;;;;;5094526;28;20510;-57
2022/12/31 02:33:21;;;;;;;4.32;1.10;;;;;;;;;;5094480;28;20090;-57
2022/12/31 02:35:59;;;;;;;2.90;0.60;;;;;;;;;;5094703;28;20406;-57
2022/12/31 02:38:31;;;;;;;1.50;0.50;;;;;;;;;;5094783;28;20403;-58
2022/12/31 02:40:58;;;;;;;8.60;1.35;;;;;;;;;;5094444;28;20127;-58
2022/12/31 02:43:24;;;;;;;1.88;0.82;;;;;;;;;;5094315;28;20446;-58
2022/12/31 02:46:03;;;;;;;4.63;1.30;;;;;;;;;;5094519;28;20047;-57
2022/12/31 02:48:35;;;;;;;2.95;1.10;;;;;;;;;;5094484;28;20052;-57
2022/12/31 02:51:08;;;;;;;2.50;1.35;;;;;;;;;;5094446;28;20055;-58
2022/12/31 02:53:51;;;;;;;3.35;1.42;;;;;;;;;;5094317;28;20076;-57
2022/12/31 02:56:39;;;;;;;2.45;0.90;;;;;;;;;;5094120;28;20044;-57
2022/12/31 03:04:44;;;;;;;3.83;1.42;;;;;;;;;;5094094;28;20048;-57
2022/12/31 03:07:12;;;;;;;3.42;1.50;;;;;;;;;;5093894;28;20480;-57
2022/12/31 03:09:39;;;;;;;3.00;1.40;;;;;;;;;;5094069;28;20131;-58
2022/12/31 03:14:51;;;;;;;2.85;1.38;;;;;;;;;;5094072;28;20226;-58
2022/12/31 03:17:18;;;;;;;5.40;1.40;;;;;;;;;;5093976;28;20040;-58
2022/12/31 03:22:29;;;;;;;3.60;1.40;;;;;;;;;;5093772;28;20052;-57
2022/12/31 03:27:51;;;;;;;2.47;1.20;;;;;;;;;;5093803;28;20429;-58
2022/12/31 03:30:18;;;;;;;4.97;2.22;;;;;;;;;;5093678;28;20074;-58
2022/12/31 03:32:45;;;;;;;3.30;1.40;;;;;;;;;;5093509;28;20050;-58
2022/12/31 03:35:12;;;;;;;4.50;2.20;;;;;;;;;;5092751;28;20048;-58
2022/12/31 03:37:39;;;;;;;2.95;1.75;;;;;;;;;;5093441;28;20052;-59
2022/12/31 03:40:07;;;;;;;2.95;1.77;;;;;;;;;;5093586;28;20044;-58
2022/12/31 03:42:33;;;;;;;4.13;1.88;;;;;;;;;;5093073;28;20044;-58
2022/12/31 03:45:00;;;;;;;3.10;1.77;;;;;;;;;;5093155;28;20059;-58
2022/12/31 03:47:26;;;;;;;5.28;2.53;;;;;;;;;;5093332;28;20044;-58
2022/12/31 03:49:52;;;;;;;8.35;2.40;;;;;;;;;;5093388;28;20127;-58
2022/12/31 03:52:19;;;;;;;8.13;2.80;;;;;;;;;;5093027;28;20060;-57
2022/12/31 03:54:45;;;;;;;10.63;2.70;;;;;;;;;;5092969;28;20044;-58
2022/12/31 03:57:12;;;;;;;7.78;2.92;;;;;;;;;;5092773;28;20555;-58
2022/12/31 03:59:38;;;;;;;9.30;3.10;;;;;;;;;;5092870;28;20435;-58
2022/12/31 04:02:04;;;;;;;8.75;2.53;;;;;;;;;;5092853;28;20044;-57
2022/12/31 04:04:31;;;;;;;13.00;2.53;;;;;;;;;;5092575;28;20051;-57
2022/12/31 04:06:57;;;;;;;11.32;2.40;;;;;;;;;;5092875;28;20083;-58
2022/12/31 04:09:24;;;;;;;12.02;2.90;;;;;;;;;;5092619;28;20066;-58
2022/12/31 04:11:50;;;;;;;10.38;2.67;;;;;;;;;;5092567;28;20051;-58
2022/12/31 04:14:17;;;;;;;10.88;2.40;;;;;;;;;;5092447;28;20131;-58
2022/12/31 04:16:44;;;;;;;10.70;2.20;;;;;;;;;;5092822;28;20385;-57
2022/12/31 04:19:11;;;;;;;19.92;3.05;;;;;;;;;;5092704;28;20047;-57
2022/12/31 04:21:37;;;;;;;14.67;2.77;;;;;;;;;;5092424;28;20051;-57
2022/12/31 04:24:04;;;;;;;16.15;2.88;;;;;;;;;;5092259;28;20060;-57
2022/12/31 04:26:30;;;;;;;16.67;3.60;;;;;;;;;;5092375;28;20418;-57
2022/12/31 04:28:57;;;;;;;14.38;2.78;;;;;;;;;;5092573;28;20044;-57
2022/12/31 04:31:23;;;;;;;16.38;3.33;;;;;;;;;;5092451;28;20052;-57
2022/12/31 04:33:50;;;;;;;16.20;2.72;;;;;;;;;;5092080;28;20087;-57
2022/12/31 04:36:16;;;;;;;13.50;3.15;;;;;;;;;;5092463;28;20205;-57
2022/12/31 04:38:42;;;;;;;11.68;2.80;;;;;;;;;;5092136;28;20039;-58
2022/12/31 04:41:18;;;;;;;17.65;3.00;;;;;;;;;;5092079;28;20055;-58
2022/12/31 04:43:46;;;;;;;16.65;2.92;;;;;;;;;;5092374;28;20052;-57
2022/12/31 04:46:13;;;;;;;13.45;2.60;;;;;;;;;;5091931;28;20466;-58
2022/12/31 04:48:40;;;;;;;13.93;2.42;;;;;;;;;;5091982;28;20055;-58
2022/12/31 04:51:06;;;;;;;16.60;2.83;;;;;;;;;;5092041;28;20052;-58
2022/12/31 04:53:33;;;;;;;16.30;3.45;;;;;;;;;;5091854;28;20491;-58
2022/12/31 04:55:59;;;;;;;21.70;2.95;;;;;;;;;;5092158;28;20046;-58
2022/12/31 04:58:26;;;;;;;17.65;2.25;;;;;;;;;;5092131;28;20044;-58
2022/12/31 05:00:54;;;;;;;15.68;2.67;;;;;;;;;;5092055;28;20051;-58
2022/12/31 05:03:21;;;;;;;18.25;2.70;;;;;;;;;;5092129;28;20044;-57
2022/12/31 05:05:48;;;;;;;14.50;2.22;;;;;;;;;;5091683;28;20567;-57
2022/12/31 05:08:15;;;;;;;15.05;2.53;;;;;;;;;;5092086;28;20460;-58
2022/12/31 05:10:43;;;;;;;16.10;2.57;;;;;;;;;;5091959;28;20476;-58
2022/12/31 05:13:09;;;;;;;13.50;2.63;;;;;;;;;;5091831;28;20074;-58
2022/12/31 05:15:36;;;;;;;14.93;2.38;;;;;;;;;;5091902;28;20047;-57
2022/12/31 05:18:02;;;;;;;16.65;3.40;;;;;;;;;;5090402;28;20052;-58
2022/12/31 05:20:29;;;;;;;13.13;3.13;;;;;;;;;;5091597;28;20434;-57
2022/12/31 05:22:55;;;;;;;12.52;2.50;;;;;;;;;;5091895;28;20130;-58
2022/12/31 05:25:21;;;;;;;14.52;2.47;;;;;;;;;;5091342;28;20135;-58
2022/12/31 05:27:48;;;;;;;14.07;2.42;;;;;;;;;;5091562;28;20052;-57
2022/12/31 05:30:16;;;;;;;12.35;2.25;;;;;;;;;;5091601;28;20066;-57
2022/12/31 05:32:43;;;;;;;13.20;3.20;;;;;;;;;;5091867;28;20467;-58
2022/12/31 05:35:10;;;;;;;16.65;2.90;;;;;;;;;;5091325;28;20048;-58
2022/12/31 05:37:36;;;;;;;13.40;3.03;;;;;;;;;;5091771;28;20052;-57
2022/12/31 05:40:03;;;;;;;14.23;3.10;;;;;;;;;;5091418;28;20048;-58
2022/12/31 05:42:29;;;;;;;21.65;3.42;;;;;;;;;;5091674;28;20048;-57
2022/12/31 05:44:56;;;;;;;17.92;3.58;;;;;;;;;;5091719;28;20054;-58
2022/12/31 05:47:22;;;;;;;17.63;3.20;;;;;;;;;;5091331;28;20499;-58
2022/12/31 05:49:48;;;;;;;19.27;3.90;;;;;;;;;;5091382;28;20131;-57
2022/12/31 05:52:15;;;;;;;22.63;3.65;;;;;;;;;;5091564;28;20048;-57
2022/12/31 05:54:42;;;;;;;19.50;4.50;;;;;;;;;;5091563;28;20055;-58
2022/12/31 05:57:08;;;;;;;18.17;3.67;;;;;;;;;;5092499;28;20047;-57
2022/12/31 05:59:34;;;;;;;26.67;4.13;;;;;;;;;;5095300;28;20071;-58
2022/12/31 06:02:01;;;;;;;28.83;5.25;;;;;;;;;;5095427;28;20422;-58
2022/12/31 06:04:27;;;;;;;21.42;4.00;;;;;;;;;;5095183;28;20048;-58
2022/12/31 06:06:53;;;;;;;26.00;4.35;;;;;;;;;;5095276;28;20059;-58
2022/12/31 06:09:20;;;;;;;24.38;4.47;;;;;;;;;;5095191;28;20143;-58
2022/12/31 06:11:46;;;;;;;18.67;4.13;;;;;;;;;;5095251;28;20047;-58
2022/12/31 06:14:13;;;;;;;25.52;5.07;;;;;;;;;;5095292;28;20048;-56
2022/12/31 06:16:40;;;;;;;26.05;4.95;;;;;;;;;;5094826;28;20094;-57
2022/12/31 06:19:07;;;;;;;23.23;4.32;;;;;;;;;;5095206;28;20044;-57
2022/12/31 06:21:33;;;;;;;22.77;3.95;;;;;;;;;;5094738;28;20052;-57
2022/12/31 06:23:59;;;;;;;25.65;5.00;;;;;;;;;;5094802;28;20055;-57
2022/12/31 06:26:26;;;;;;;23.10;5.15;;;;;;;;;;5094745;28;20058;-57
2022/12/31 06:28:53;;;;;;;21.65;4.40;;;;;;;;;;5094647;28;20054;-57
2022/12/31 06:31:19;;;;;;;29.58;5.03;;;;;;;;;;5094839;28;20127;-57
2022/12/31 06:33:46;;;;;;;22.15;4.82;;;;;;;;;;5094668;28;20109;-57
2022/12/31 06:36:13;;;;;;;24.92;4.10;;;;;;;;;;5094466;28;20513;-57
2022/12/31 06:38:40;;;;;;;27.45;4.75;;;;;;;;;;5094578;28;20052;-57
2022/12/31 06:41:09;;;;;;;22.60;4.77;;;;;;;;;;5094412;28;20484;-57
2022/12/31 06:43:36;;;;;;;27.17;4.28;;;;;;;;;;5094577;28;20044;-57
2022/12/31 06:46:06;;;;;;;21.03;4.10;;;;;;;;;;5094630;28;20052;-57
2022/12/31 06:48:33;;;;;;;21.95;3.75;;;;;;;;;;5094630;28;20467;-57
2022/12/31 06:51:04;;;;;;;18.40;3.58;;;;;;;;;;5094548;28;20137;-58
2022/12/31 06:53:30;;;;;;;19.95;4.15;;;;;;;;;;5094196;28;20056;-57
2022/12/31 06:55:57;;;;;;;22.25;3.58;;;;;;;;;;5094076;28;20048;-57
2022/12/31 06:58:23;;;;;;;17.08;2.88;;;;;;;;;;5094118;28;20040;-57
2022/12/31 07:00:58;;;;;;;16.50;2.75;;;;;;;;;;5094239;28;20102;-56
2022/12/31 07:03:48;;;;;;;16.17;3.05;;;;;;;;;;5094392;28;20373;-57
2022/12/31 07:06:32;;;;;;;17.25;3.42;;;;;;;;;;5072940;28;20048;-57
2022/12/31 07:09:07;;;;;;;21.65;3.78;;;;;;;;;;5093994;28;20051;-57
2022/12/31 07:11:43;;;;;;;20.00;3.88;;;;;;;;;;5093831;28;20044;-58
2022/12/31 07:14:24;;;;;;;20.50;5.05;;;;;;;;;;5093765;28;20483;-57
2022/12/31 07:17:11;;;;;;;19.88;4.40;;;;;;;;;;5093708;28;20055;-58
2022/12/31 07:19:56;;;;;;;19.00;5.60;;;;;;;;;;5052206;28;20044;-57
2022/12/31 07:22:23;;;;;;;10.90;3.10;;;;;;;;;;5081678;28;20503;-58
2022/12/31 07:24:50;;;;;;;14.85;3.05;;;;;;;;;;5093498;28;20056;-58
2022/12/31 07:27:16;;;;;;;14.45;3.35;;;;;;;;;;5093639;28;20044;-58
2022/12/31 07:29:54;;;;;;;17.92;4.15;;;;;;;;;;5093728;28;20052;-58
2022/12/31 07:32:24;;;;;;;12.77;3.35;;;;;;;;;;5093562;28;20048;-58
2022/12/31 07:34:56;;;;;;;16.33;4.60;;;;;;;;;;5093615;28;20052;-58
2022/12/31 07:37:32;;;;;;;15.77;3.33;;;;;;;;;;5093488;28;20044;-58
2022/12/31 07:40:13;;;;;;;14.00;3.22;;;;;;;;;;5093625;28;20052;-58
2022/12/31 07:43:00;;;;;;;13.38;3.00;;;;;;;;;;5093521;28;20062;-58
2022/12/31 07:45:32;;;;;;;14.03;3.13;;;;;;;;;;5082661;28;20059;-58
2022/12/31 07:47:58;;;;;;;23.27;3.78;;;;;;;;;;5093203;28;20506;-58
2022/12/31 07:50:28;;;;;;;14.57;3.05;;;;;;;;;;5093007;28;20131;-58
2022/12/31 07:52:55;;;;;;;15.00;3.13;;;;;;;;;;5093073;28;20048;-58
2022/12/31 07:55:21;;;;;;;16.75;3.53;;;;;;;;;;5093084;28;20131;-58
2022/12/31 07:57:54;;;;;;;16.65;3.25;;;;;;;;;;5093178;28;20080;-58
2022/12/31 08:00:20;;;;;;;17.48;3.38;;;;;;;;;;5093042;28;20131;-58
2022/12/31 08:03:06;;;;;;;22.00;3.20;;;;;;;;;;5092870;28;20044;-57
2022/12/31 08:05:42;;;;;;;17.08;3.35;;;;;;;;;;5093003;28;20155;-58
2022/12/31 08:08:22;;;;;;;22.38;4.57;;;;;;;;;;5093105;28;20075;-58
2022/12/31 08:10:48;;;;;;;26.17;4.97;;;;;;;;;;5092727;28;20048;-57
2022/12/31 08:13:15;;;;;;;19.40;4.13;;;;;;;;;;5092689;28;20039;-57
2022/12/31 08:15:42;;;;;;;23.88;3.83;;;;;;;;;;5092743;28;20042;-57
2022/12/31 08:18:09;;;;;;;24.83;4.45;;;;;;;;;;5092815;28;20130;-57
2022/12/31 08:20:43;;;;;;;29.02;5.85;;;;;;;;;;5091454;28;20047;-57
2022/12/31 08:23:18;;;;;;;32.35;4.68;;;;;;;;;;5092229;28;20435;-56
2022/12/31 08:25:45;;;;;;;32.67;5.15;;;;;;;;;;5091829;28;20052;-57
2022/12/31 08:28:20;;;;;;;34.95;5.32;;;;;;;;;;5091512;28;20051;-57
2022/12/31 08:30:57;;;;;;;40.70;6.45;;;;;;;;;;5091594;28;20518;-57
2022/12/31 08:33:44;;;;;;;35.35;6.30;;;;;;;;;;5092489;28;20044;-57
2022/12/31 08:36:17;;;;;;;34.90;5.75;;;;;;;;;;5089542;28;20081;-57
2022/12/31 08:38:52;;;;;;;33.97;6.72;;;;;;;;;;5092319;28;20054;-57
2022/12/31 08:41:21;;;;;;;37.67;6.18;;;;;;;;;;5091914;28;20036;-56
2022/12/31 08:44:06;;;;;;;40.20;7.32;;;;;;;;;;5091736;28;20126;-57
2022/12/31 08:46:37;;;;;;;37.33;6.88;;;;;;;;;;5091673;28;20044;-57
2022/12/31 08:49:03;;;;;;;43.10;7.00;;;;;;;;;;5092262;28;20497;-57
2022/12/31 08:51:30;;;;;;;34.45;5.85;;;;;;;;;;5088383;28;20094;-57
2022/12/31 08:53:56;;;;;;;33.42;5.72;;;;;;;;;;5091698;28;20053;-57
2022/12/31 08:56:23;;;;;;;31.50;5.72;;;;;;;;;;5091688;28;20043;-57
2022/12/31 08:58:58;;;;;;;34.65;5.70;;;;;;;;;;5091772;28;20040;-57
2022/12/31 09:01:26;;;;;;;32.63;5.55;;;;;;;;;;5091539;28;20046;-57
2022/12/31 09:04:04;;;;;;;33.05;4.63;;;;;;;;;;5091113;28;20044;-56
2022/12/31 09:06:33;;;;;;;24.63;4.70;;;;;;;;;;5091216;28;20044;-57
2022/12/31 09:09:37;;;;;;;32.80;5.75;;;;;;;;;;5089952;28;20044;-57
2022/12/31 09:12:11;;;;;;;30.23;4.57;;;;;;;;;;5018458;28;20077;-57
2022/12/31 09:14:46;;;;;;;24.83;3.83;;;;;;;;;;5082460;28;20406;-57
2022/12/31 09:17:37;;;;;;;28.42;5.40;;;;;;;;;;5092016;28;20059;-56
2022/12/31 09:20:03;;;;;;;23.33;4.25;;;;;;;;;;5091562;28;20047;-56
2022/12/31 09:22:30;;;;;;;21.58;3.88;;;;;;;;;;5091901;28;20568;-57
2022/12/31 09:24:56;;;;;;;24.63;4.78;;;;;;;;;;5091463;28;20056;-57
2022/12/31 09:27:29;;;;;;;26.83;4.63;;;;;;;;;;5087464;28;20048;-57
2022/12/31 09:30:02;;;;;;;24.63;4.35;;;;;;;;;;5084950;28;20051;-58
2022/12/31 09:32:34;;;;;;;24.38;4.55;;;;;;;;;;5092647;28;20051;-57
2022/12/31 09:35:20;;;;;;;26.65;5.32;;;;;;;;;;5093942;28;20464;-57
2022/12/31 09:37:47;;;;;;;24.42;4.38;;;;;;;;;;5091783;28;20411;-57
2022/12/31 09:40:33;;;;;;;23.27;4.72;;;;;;;;;;5093042;28;20044;-57
2022/12/31 09:43:11;;;;;;;29.63;4.18;;;;;;;;;;5093875;28;20575;-57
2022/12/31 09:45:40;;;;;;;25.55;3.92;;;;;;;;;;5094390;28;20085;-57
2022/12/31 09:48:07;;;;;;;28.63;4.88;;;;;;;;;;5094862;28;20559;-56
2022/12/31 09:50:44;;;;;;;26.83;4.53;;;;;;;;;;5094716;28;20058;-57
2022/12/31 09:53:17;;;;;;;25.10;4.47;;;;;;;;;;5094780;28;20048;-57
2022/12/31 09:55:47;;;;;;;26.05;4.22;;;;;;;;;;5094917;28;20101;-57
2022/12/31 09:58:13;;;;;;;21.33;3.95;;;;;;;;;;5094944;28;20044;-58
2022/12/31 10:00:39;;;;;;;20.27;3.42;;;;;;;;;;5094864;28;20044;-57
2022/12/31 10:03:15;;;;;;;24.00;3.90;;;;;;;;;;5094860;28;20067;-58
2022/12/31 10:06:00;;;;;;;22.00;3.78;;;;;;;;;;5094530;28;20131;-58
2022/12/31 10:08:46;;;;;;;21.05;3.45;;;;;;;;;;5094201;28;20052;-58
2022/12/31 10:11:23;;;;;;;21.60;4.00;;;;;;;;;;5093735;28;20044;-57
2022/12/31 10:13:50;;;;;;;24.30;4.13;;;;;;;;;;5093909;28;20701;-56
2022/12/31 10:16:23;;;;;;;18.45;3.08;;;;;;;;;;5092622;28;20042;-57
2022/12/31 10:19:15;;;;;;;21.02;3.35;;;;;;;;;;5094650;28;20047;-57
2022/12/31 10:21:56;;;;;;;20.13;3.42;;;;;;;;;;5094392;28;20147;-57
2022/12/31 10:24:29;;;;;;;19.73;3.30;;;;;;;;;;5094120;28;20055;-56
2022/12/31 10:27:15;;;;;;;18.38;3.30;;;;;;;;;;5094429;28;20058;-57
2022/12/31 10:29:55;;;;;;;23.45;3.38;;;;;;;;;;5094289;28;20052;-57
2022/12/31 10:32:30;;;;;;;21.92;4.05;;;;;;;;;;5094356;28;20414;-57
2022/12/31 10:35:11;;;;;;;20.48;4.22;;;;;;;;;;5093951;28;20135;-57
2022/12/31 10:37:43;;;;;;;20.48;4.00;;;;;;;;;;5092194;28;20456;-57
2022/12/31 10:40:09;;;;;;;26.05;4.88;;;;;;;;;;5093570;28;20474;-57
2022/12/31 10:42:51;;;;;;;21.67;5.22;;;;;;;;;;5092812;28;20050;-58
2022/12/31 10:45:17;;;;;;;24.52;5.10;;;;;;;;;;5093717;28;20054;-57
2022/12/31 10:48:02;;;;;;;29.25;5.82;;;;;;;;;;5093506;28;20368;-57
2022/12/31 10:50:47;;;;;;;24.52;4.72;;;;;;;;;;5093580;28;20048;-57
2022/12/31 10:53:23;;;;;;;20.90;4.80;;;;;;;;;;5093376;28;20569;-57
2022/12/31 10:56:08;;;;;;;27.02;4.85;;;;;;;;;;5093108;28;20054;-57
2022/12/31 10:58:41;;;;;;;29.52;5.32;;;;;;;;;;5093455;28;20048;-58
2022/12/31 11:01:16;;;;;;;28.17;5.78;;;;;;;;;;5093741;28;20044;-58
2022/12/31 11:04:01;;;;;;;30.20;5.63;;;;;;;;;;5091924;28;20044;-58
2022/12/31 11:06:31;;;;;;;23.40;5.50;;;;;;;;;;5091116;28;20101;-58
2022/12/31 11:09:06;;;;;;;33.88;6.57;;;;;;;;;;5093079;28;20044;-58
2022/12/31 11:11:52;;;;;;;27.83;4.85;;;;;;;;;;5091533;28;20052;-58
2022/12/31 11:14:37;;;;;;;28.25;4.50;;;;;;;;;;5092476;28;20054;-58
2022/12/31 11:17:03;;;;;;;24.52;4.30;;;;;;;;;;5092004;28;20040;-58
2022/12/31 11:19:38;;;;;;;25.73;3.67;;;;;;;;;;5090557;28;20241;-58
2022/12/31 11:22:30;;;;;;;23.55;3.90;;;;;;;;;;5090485;28;20044;-58
2022/12/31 11:25:16;;;;;;;33.22;4.03;;;;;;;;;;5091572;28;20434;-58
2022/12/31 11:28:01;;;;;;;16.70;3.85;;;;;;;;;;5092045;28;20044;-58
2022/12/31 11:30:30;;;;;;;20.38;3.28;;;;;;;;;;5092036;28;20058;-57
2022/12/31 11:33:15;;;;;;;25.60;5.18;;;;;;;;;;5092724;28;20052;-57
2022/12/31 11:36:00;;;;;;;29.33;6.22;;;;;;;;;;5093173;28;20048;-58
2022/12/31 11:38:50;;;;;;;28.33;6.25;;;;;;;;;;5093235;28;20056;-58
2022/12/31 11:41:41;;;;;;;33.72;5.93;;;;;;;;;;5093473;28;20048;-58
2022/12/31 11:44:16;;;;;;;28.05;4.95;;;;;;;;;;5093529;28;20043;-58
2022/12/31 11:46:52;;;;;;;28.05;5.10;;;;;;;;;;5093537;28;20048;-58
2022/12/31 11:49:43;;;;;;;27.40;4.90;;;;;;;;;;5092974;28;20052;-58
2022/12/31 11:52:18;;;;;;;27.23;4.90;;;;;;;;;;5093007;28;20140;-58
2022/12/31 11:55:05;;;;;;;23.38;4.50;;;;;;;;;;5092253;28;20056;-57
2022/12/31 11:57:33;;;;;;;21.90;4.18;;;;;;;;;;5093189;28;20052;-57
2022/12/31 12:00:19;;;;;;;23.35;3.95;;;;;;;;;;5093005;28;20135;-58
2022/12/31 12:02:47;;;;;;;24.83;3.53;;;;;;;;;;5093101;28;20048;-58
2022/12/31 12:05:16;;;;;;;23.73;3.78;;;;;;;;;;5093012;28;20058;-58
2022/12/31 12:07:42;;;;;;;15.35;3.35;;;;;;;;;;5092854;28;20048;-57
2022/12/31 12:10:22;;;;;;;15.27;2.55;;;;;;;;;;5092795;28;20062;-57
2022/12/31 12:12:49;;;;;;;9.05;2.05;;;;;;;;;;5092680;28;20040;-57
2022/12/31 12:15:31;;;;;;;24.88;3.25;;;;;;;;;;5092497;28;20054;-57
2022/12/31 12:18:00;;;;;;;27.42;2.38;;;;;;;;;;5092665;28;20051;-57
2022/12/31 12:20:29;;;;;;;38.75;3.10;;;;;;;;;;5092324;28;20287;-57
2022/12/31 12:22:56;;;;;;;25.15;2.28;;;;;;;;;;5092422;28;20066;-57
2022/12/31 12:25:24;;;;;;;12.25;1.25;;;;;;;;;;5092275;28;20054;-57
2022/12/31 12:27:51;;;;;;;22.00;2.28;;;;;;;;;;5092754;28;20054;-57
2022/12/31 12:30:20;;;;;;;9.32;0.95;;;;;;;;;;5091397;28;20040;-57
2022/12/31 12:32:57;;;;;;;24.45;2.10;;;;;;;;;;5088569;28;20093;-57
2022/12/31 12:35:28;;;;;;;111.50;8.15;;;;;;;;;;5091357;28;20147;-58
2022/12/31 12:37:59;;;;;;;26.67;2.35;;;;;;;;;;5091297;28;20131;-58
2022/12/31 12:40:26;;;;;;;11.93;1.80;;;;;;;;;;5091498;28;20048;-57
2022/12/31 12:43:00;;;;;;;21.77;1.80;;;;;;;;;;5091539;28;20040;-57
2022/12/31 12:45:29;;;;;;;5.72;1.40;;;;;;;;;;5091778;28;20059;-57
2022/12/31 12:47:57;;;;;;;19.50;2.20;;;;;;;;;;5091624;28;20090;-57
2022/12/31 12:50:31;;;;;;;20.48;2.40;;;;;;;;;;5091749;28;20048;-57
2022/12/31 12:53:00;;;;;;;5.43;1.50;;;;;;;;;;5089713;28;20050;-57
2022/12/31 12:55:27;;;;;;;7.50;2.22;;;;;;;;;;5091719;28;20048;-57
2022/12/31 12:57:53;;;;;;;8.32;1.20;;;;;;;;;;5091370;28;20050;-57
2022/12/31 13:00:19;;;;;;;7.57;1.17;;;;;;;;;;5091301;28;20048;-57
2022/12/31 13:02:55;;;;;;;10.93;1.42;;;;;;;;;;5091334;28;20086;-57
2022/12/31 13:05:40;;;;;;;7.03;1.00;;;;;;;;;;5090997;28;20071;-57
2022/12/31 13:08:09;;;;;;;3.00;0.90;;;;;;;;;;5091321;28;20056;-58
2022/12/31 13:10:38;;;;;;;4.22;0.80;;;;;;;;;;5088108;28;20154;-57
2022/12/31 13:13:04;;;;;;;3.03;0.40;;;;;;;;;;5090592;28;20388;-58
2022/12/31 13:15:54;;;;;;;14.48;1.55;;;;;;;;;;5091277;28;20048;-57
2022/12/31 13:18:35;;;;;;;14.05;1.05;;;;;;;;;;5091168;28;20044;-57
2022/12/31 13:21:01;;;;;;;2.85;0.40;;;;;;;;;;5091169;28;20418;-58
2022/12/31 13:23:38;;;;;;;3.40;0.50;;;;;;;;;;5084564;28;20476;-58
2022/12/31 13:26:05;;;;;;;2.42;0.80;;;;;;;;;;5084763;28;20072;-57
2022/12/31 13:28:33;;;;;;;3.50;0.43;;;;;;;;;;5091366;28;20043;-57
2022/12/31 13:31:09;;;;;;;1.75;0.40;;;;;;;;;;5089995;28;20083;-57
2022/12/31 13:33:37;;;;;;;1.55;0.52;;;;;;;;;;5089803;28;20055;-57
2022/12/31 13:36:06;;;;;;;3.65;0.80;;;;;;;;;;5091138;28;20135;-57
2022/12/31 13:38:35;;;;;;;5.43;0.88;;;;;;;;;;5090928;28;20484;-57
2022/12/31 13:41:11;;;;;;;1.75;0.70;;;;;;;;;;5091264;28;20058;-57
2022/12/31 13:43:56;;;;;;;2.17;0.38;;;;;;;;;;5090874;28;20044;-57
2022/12/31 13:46:28;;;;;;;2.65;0.52;;;;;;;;;;5090616;28;20051;-57
2022/12/31 13:48:57;;;;;;;3.63;1.05;;;;;;;;;;5087342;28;20047;-58
2022/12/31 13:51:26;;;;;;;12.38;1.48;;;;;;;;;;5089922;28;20052;-57
2022/12/31 13:54:00;;;;;;;14.10;1.33;;;;;;;;;;5088036;28;20044;-57
2022/12/31 13:56:30;;;;;;;7.18;1.10;;;;;;;;;;5089907;28;20121;-57
2022/12/31 13:59:11;;;;;;;4.78;1.20;;;;;;;;;;5087370;28;20408;-57
2022/12/31 14:01:37;;;;;;;3.63;1.10;;;;;;;;;;5090492;28;20055;-57
2022/12/31 14:04:12;;;;;;;5.68;0.60;;;;;;;;;;5090581;28;20052;-57
2022/12/31 14:06:49;;;;;;;4.97;1.00;;;;;;;;;;5089781;28;20044;-57
2022/12/31 14:09:19;;;;;;;7.35;1.80;;;;;;;;;;5090608;28;20051;-56
2022/12/31 14:11:57;;;;;;;16.45;4.18;;;;;;;;;;5090355;28;20358;-57
2022/12/31 14:14:40;;;;;;;7.00;2.47;;;;;;;;;;5089638;28;20396;-57
2022/12/31 14:17:25;;;;;;;9.85;1.77;;;;;;;;;;5089082;28;20132;-57
2022/12/31 14:20:13;;;;;;;10.90;1.20;;;;;;;;;;5093876;28;20054;-57
2022/12/31 14:22:46;;;;;;;10.90;1.02;;;;;;;;;;5094190;28;20040;-56
2022/12/31 14:25:39;;;;;;;14.18;1.73;;;;;;;;;;5093761;28;20087;-57
2022/12/31 14:28:06;;;;;;;12.10;1.85;;;;;;;;;;5089157;28;20078;-57
2022/12/31 14:30:35;;;;;;;10.38;2.63;;;;;;;;;;5092610;28;20085;-57
2022/12/31 14:33:07;;;;;;;8.88;2.72;;;;;;;;;;5093891;28;20044;-57
2022/12/31 14:35:37;;;;;;;12.95;3.47;;;;;;;;;;5093559;28;20369;-57
2022/12/31 14:38:03;;;;;;;13.20;3.50;;;;;;;;;;5093493;28;20546;-57
2022/12/31 14:40:30;;;;;;;14.60;4.13;;;;;;;;;;5093602;28;20044;-58
2022/12/31 14:43:15;;;;;;;15.30;3.92;;;;;;;;;;5093591;28;20044;-57
2022/12/31 14:45:59;;;;;;;19.23;5.60;;;;;;;;;;5093645;28;20055;-57
2022/12/31 14:48:41;;;;;;;28.05;5.80;;;;;;;;;;5093912;28;20059;-57
2022/12/31 14:51:08;;;;;;;109.15;10.55;;;;;;;;;;5094227;28;20503;-57
2022/12/31 14:53:34;;;;;;;28.80;6.35;;;;;;;;;;5091693;28;20058;-57
2022/12/31 14:56:02;;;;;;;12.18;4.18;;;;;;;;;;5093546;28;20076;-57
2022/12/31 14:58:29;;;;;;;10.68;2.58;;;;;;;;;;5094111;28;20123;-57
2022/12/31 15:01:07;;;;;;;10.90;2.80;;;;;;;;;;5093826;28;20040;-57
2022/12/31 15:03:38;;;;;;;8.95;2.80;;;;;;;;;;5093975;28;20071;-57
2022/12/31 15:06:25;;;;;;;12.30;2.67;;;;;;;;;;5093479;28;20048;-57
2022/12/31 15:08:58;;;;;;;10.23;2.92;;;;;;;;;;5094099;28;20396;-57
2022/12/31 15:11:52;;;;;;;12.10;3.40;;;;;;;;;;5093390;28;20086;-58
2022/12/31 15:14:24;;;;;;;18.88;5.10;;;;;;;;;;5093461;28;20048;-57